Tropical Cyclones
[Index]
Main Index Home Page Stock Weather Photos Extreme Storms Discussion Storm News and Storm Chasing Reports Tropical Cyclones / Hurricanes / Typhoons Weather Data and Links Wild Fires / Bushfires Weather Observation Techniques Weather Picture Catalogue Tornado Pictures and Reports Stock Video Footage and DVDs for sale
Season 2011-2012 Tropical Cyclone KUENA Track Map
Season 2011-2012 Summaries (Operational Data): [AU] [SIO] [SPAC] [SH]
<<- Previous TC | 2011-2012 Season | Next TC ->>

click for intensity scale information  Lat/long Grid: Show Hide

 Date Labels: Show Hide

Operational Tropical Cyclone Data : JTWC Advisories

Name: KUENA
Number: 1220

02 Jun 2012 00:00 UTC to 08 Jun 2012 18:00 UTC

    date/time    lat    long     hPa   cat  kts
2012-06-02 00    3.4    66.5    1010         15          
2012-06-02 06    3.5    66.2    1010         15          
2012-06-02 12    5.6    67.1    1010         15          
2012-06-02 18    6.1    66.8    1010         15          
2012-06-03 00    6.6    66.6    1010         15          
2012-06-03 06    6.9    66.3    1010         15          
2012-06-03 12    7.3    65.9    1010         15          
2012-06-03 18    7.8    65.5    1010         15          
2012-06-04 00    8.2    65.0    1010         15          
2012-06-04 06    8.4    64.2    1010         15          
2012-06-04 12    8.5    63.9    1010         15          
2012-06-04 18    9.2    63.1    1010         15          
2012-06-05 06    8.9    62.1    1000         30          
2012-06-05 12    9.2    61.1     996    1    35          
2012-06-05 18    9.4    60.2     993    1    40          
2012-06-06 00    9.6    59.3     989    1    45          
2012-06-06 06   10.0    58.5     982    2    55          
2012-06-06 12   10.3    57.9     985    2    50          
2012-06-06 18   10.0    56.8     985    2    50          
2012-06-07 00    9.5    56.2     985    1    45          
2012-06-07 06    9.1    56.0     996    1    35          
2012-06-07 12    8.8    55.6    1000         30          
2012-06-07 18    8.6    55.4    1000         30          
2012-06-08 00    8.3    55.4    1000         30          
2012-06-08 06    8.1    54.9    1004         25          
2012-06-08 12    8.2    54.5    1004         25          
2012-06-08 18    7.8    53.9    1004         25          
Winds are 10-min average.

Tropical cyclone tracks developed by Michael Bath using operational warnings and advisories and Google Maps.


[Australian Severe Weather index] [Copyright Notice] [Email Contacts] [Search This Site] [Privacy Policy]
Document: tropical_cyclone_kuena.htm Updated: 2 May 2017